Time;durP1;ratioP1;P1;durP2;ratioP2;P2;SDS_P1;SDS_P2;PMS_P1;PMS_P2;Temp;Humidity;BMP_temperature;BMP_pressure;BME280_temperature;BME280_humidity;BME280_pressure;Samples;Min_cycle;Max_cycle;Signal;HPM_P1;HPM_P2
2022/01/02 00:01:49;;;;;;;7.25;3.45;;;11.50;99.90;;;;;;5073898;28;20040;-84
2022/01/02 00:04:17;;;;;;;6.53;4.38;;;11.50;99.90;;;;;;5089384;28;20065;-85
2022/01/02 00:06:48;;;;;;;5.82;3.80;;;11.50;99.90;;;;;;5063849;28;20050;-84
2022/01/02 00:09:30;;;;;;;7.90;4.38;;;11.40;99.90;;;;;;5074386;28;20032;-84
2022/01/02 00:12:08;;;;;;;5.50;3.85;;;11.40;99.90;;;;;;5091116;28;20531;-84
2022/01/02 00:14:36;;;;;;;7.53;4.28;;;11.40;99.90;;;;;;5091152;28;20428;-83
2022/01/02 00:17:04;;;;;;;10.73;4.95;;;11.40;99.90;;;;;;5091086;28;20093;-83
2022/01/02 00:19:31;;;;;;;11.90;4.78;;;11.40;99.90;;;;;;5090949;28;20048;-83
2022/01/02 00:22:02;;;;;;;6.60;4.28;;;11.30;99.90;;;;;;5073840;28;20082;-84
2022/01/02 00:24:30;;;;;;;8.63;4.47;;;11.30;99.90;;;;;;5090961;28;20537;-84
2022/01/02 00:26:58;;;;;;;6.20;3.78;;;11.30;99.90;;;;;;5074039;28;20127;-83
2022/01/02 00:29:24;;;;;;;10.95;5.70;;;11.30;99.90;;;;;;5073885;28;20044;-83
2022/01/02 00:31:54;;;;;;;7.40;4.50;;;11.30;99.90;;;;;;5073683;28;20043;-84
2022/01/02 00:34:20;;;;;;;8.50;4.63;;;11.20;99.90;;;;;;5090621;28;20565;-83
2022/01/02 00:36:47;;;;;;;8.10;4.47;;;11.20;99.90;;;;;;5073439;28;20063;-83
2022/01/02 00:39:13;;;;;;;10.18;5.28;;;11.20;99.90;;;;;;5073999;28;20039;-84
2022/01/02 00:41:43;;;;;;;9.57;5.32;;;11.20;99.90;;;;;;5074005;28;20039;-83
2022/01/02 00:44:13;;;;;;;12.65;5.93;;;11.20;99.90;;;;;;5090503;28;20044;-83
2022/01/02 00:46:47;;;;;;;5.97;3.85;;;11.20;99.90;;;;;;5090527;28;20128;-83
2022/01/02 00:49:18;;;;;;;7.45;4.45;;;11.20;99.90;;;;;;5073852;28;20487;-83
2022/01/02 00:51:50;;;;;;;9.82;5.30;;;11.20;99.90;;;;;;5091460;28;20032;-82
2022/01/02 00:54:18;;;;;;;8.50;4.70;;;11.20;99.90;;;;;;5073764;28;20036;-83
2022/01/02 00:56:46;;;;;;;8.80;4.18;;;11.20;99.90;;;;;;5089829;28;20036;-84
2022/01/02 00:59:41;;;;;;;7.28;4.32;;;11.20;99.90;;;;;;5073846;28;20043;-84
2022/01/02 01:02:12;;;;;;;8.98;6.32;;;11.20;99.90;;;;;;5064953;28;20056;-83
2022/01/02 01:04:41;;;;;;;14.13;4.82;;;11.20;99.90;;;;;;5073542;28;20050;-84
2022/01/02 01:07:07;;;;;;;13.30;5.40;;;11.20;99.90;;;;;;5090136;28;20581;-83
2022/01/02 01:09:34;;;;;;;14.90;5.82;;;11.20;99.90;;;;;;5090370;28;20122;-83
2022/01/02 01:12:01;;;;;;;10.75;5.00;;;11.20;99.90;;;;;;5090017;28;20090;-83
2022/01/02 01:14:28;;;;;;;6.80;4.55;;;11.10;99.90;;;;;;5072835;28;20035;-84
2022/01/02 01:16:54;;;;;;;7.88;4.72;;;11.10;99.90;;;;;;5090584;28;20051;-84
2022/01/02 01:19:22;;;;;;;8.80;4.00;;;11.20;99.90;;;;;;5090552;28;20040;-83
2022/01/02 01:21:48;;;;;;;10.80;5.43;;;11.20;99.90;;;;;;5073600;28;20116;-82
2022/01/02 01:24:13;;;;;;;11.10;5.63;;;11.20;99.90;;;;;;5091837;28;20044;-82
2022/01/02 01:26:40;;;;;;;11.98;5.70;;;11.20;99.90;;;;;;5092111;28;20075;-83
2022/01/02 01:29:06;;;;;;;9.55;5.38;;;11.20;99.90;;;;;;5075445;28;20044;-83
2022/01/02 01:31:31;;;;;;;14.20;6.10;;;11.20;99.90;;;;;;5091622;28;20043;-83
2022/01/02 01:33:57;;;;;;;8.45;5.93;;;11.20;99.90;;;;;;5092908;28;20036;-84
2022/01/02 01:36:22;;;;;;;8.30;5.75;;;11.20;99.90;;;;;;5092647;28;20047;-84
2022/01/02 01:38:48;;;;;;;11.35;5.75;;;11.20;99.90;;;;;;5076445;28;20095;-82
2022/01/02 01:41:33;;;;;;;11.25;5.38;;;11.10;99.90;;;;;;5094186;28;20139;-83
2022/01/02 01:46:40;;;;;;;13.57;7.50;;;11.10;99.90;;;;;;5093983;28;20044;-84
2022/01/02 01:49:19;;;;;;;9.77;5.28;;;11.10;99.90;;;;;;5093644;28;20047;-84
2022/01/02 01:51:45;;;;;;;12.30;5.90;;;11.20;99.90;;;;;;5091335;28;20036;-83
2022/01/02 01:54:11;;;;;;;13.80;6.93;;;11.10;99.90;;;;;;5073385;28;20513;-84
2022/01/02 01:56:38;;;;;;;10.75;6.00;;;11.10;99.90;;;;;;5089576;28;20068;-83
2022/01/02 01:59:04;;;;;;;11.85;6.43;;;11.10;99.90;;;;;;5075826;28;20077;-84
2022/01/02 02:01:30;;;;;;;15.50;6.18;;;11.10;99.90;;;;;;5076961;28;20474;-84
2022/01/02 02:03:57;;;;;;;11.55;6.05;;;11.10;99.90;;;;;;5093392;28;20108;-83
2022/01/02 02:06:22;;;;;;;12.40;6.03;;;11.10;99.90;;;;;;5093434;28;20502;-83
2022/01/02 02:08:50;;;;;;;10.98;6.40;;;11.10;99.90;;;;;;5093386;28;20047;-84
2022/01/02 02:11:16;;;;;;;9.60;6.25;;;11.10;99.90;;;;;;5093361;28;20493;-83
2022/01/02 02:13:44;;;;;;;13.93;7.53;;;11.10;99.90;;;;;;5092653;28;20089;-83
2022/01/02 02:16:09;;;;;;;12.55;6.10;;;11.10;99.90;;;;;;5075745;28;20040;-83
2022/01/02 02:18:35;;;;;;;12.75;6.65;;;11.10;99.90;;;;;;5093317;28;20401;-83
2022/01/02 02:21:01;;;;;;;13.30;6.70;;;11.10;99.90;;;;;;5076343;28;20036;-84
2022/01/02 02:23:26;;;;;;;11.95;6.97;;;11.10;99.90;;;;;;5076217;28;20043;-83
2022/01/02 02:25:52;;;;;;;12.10;7.18;;;11.10;99.90;;;;;;5093274;28;20040;-83
2022/01/02 02:28:18;;;;;;;14.18;7.55;;;11.10;99.90;;;;;;5092557;28;20035;-83
2022/01/02 02:30:47;;;;;;;15.43;6.93;;;11.10;99.90;;;;;;5076246;28;20040;-83
2022/01/02 02:33:14;;;;;;;13.52;6.63;;;11.10;99.90;;;;;;5092842;28;20040;-83
2022/01/02 02:35:41;;;;;;;11.18;6.30;;;11.10;99.90;;;;;;5092769;28;20032;-83
2022/01/02 02:38:10;;;;;;;12.00;6.30;;;11.10;99.90;;;;;;5093012;28;20560;-83
2022/01/02 02:40:37;;;;;;;13.63;7.38;;;11.10;99.90;;;;;;5093026;28;20043;-83
2022/01/02 02:43:09;;;;;;;8.60;5.57;;;11.10;99.90;;;;;;5075540;28;20398;-83
2022/01/02 02:51:11;;;;;;;10.38;6.65;;;11.00;99.90;;;;;;5092818;28;20040;-83
2022/01/02 02:53:40;;;;;;;12.20;6.47;;;11.00;99.90;;;;;;5075819;28;20028;-83
2022/01/02 02:56:25;;;;;;;10.43;6.60;;;11.10;99.90;;;;;;5092517;28;20040;-83
2022/01/02 02:58:55;;;;;;;11.63;7.35;;;11.00;99.90;;;;;;5092669;28;20093;-83
2022/01/02 03:01:22;;;;;;;11.48;6.53;;;11.10;99.90;;;;;;5075731;28;20039;-83
2022/01/02 03:03:48;;;;;;;16.75;7.63;;;11.10;99.90;;;;;;5075175;28;20047;-84
2022/01/02 03:06:15;;;;;;;10.93;6.80;;;11.10;99.90;;;;;;5075309;28;20518;-84
2022/01/02 03:08:42;;;;;;;12.15;5.72;;;11.10;99.90;;;;;;5092051;28;20054;-83
2022/01/02 03:11:12;;;;;;;11.88;6.28;;;11.10;99.90;;;;;;5075454;28;20032;-83
2022/01/02 03:13:38;;;;;;;10.73;6.50;;;11.10;99.90;;;;;;5091847;28;20043;-83
2022/01/02 03:16:04;;;;;;;12.32;7.88;;;11.10;99.90;;;;;;5092243;28;20044;-83
2022/01/02 03:18:29;;;;;;;11.77;6.88;;;11.10;99.90;;;;;;5092431;28;20040;-83
2022/01/02 03:20:55;;;;;;;10.35;7.13;;;11.10;99.90;;;;;;5075294;28;20039;-83
2022/01/02 03:23:21;;;;;;;14.73;7.30;;;11.10;99.90;;;;;;5074938;28;20067;-84
2022/01/02 03:25:46;;;;;;;15.05;7.72;;;11.10;99.90;;;;;;5091783;28;20563;-84
2022/01/02 03:28:12;;;;;;;12.85;7.30;;;11.10;99.90;;;;;;5075100;28;20067;-83
2022/01/02 03:30:37;;;;;;;13.00;6.93;;;11.10;99.90;;;;;;5091757;28;20093;-83
2022/01/02 03:33:03;;;;;;;12.48;6.28;;;11.10;99.90;;;;;;5074968;28;20035;-83
2022/01/02 03:35:28;;;;;;;14.85;6.90;;;11.10;99.90;;;;;;5092266;28;20048;-83
2022/01/02 03:37:55;;;;;;;13.45;6.80;;;11.10;99.90;;;;;;5091702;28;20040;-83
2022/01/02 03:40:20;;;;;;;13.57;7.72;;;11.10;99.90;;;;;;5092074;28;20101;-84
2022/01/02 03:42:46;;;;;;;12.38;6.93;;;11.10;99.90;;;;;;5091245;28;20043;-83
2022/01/02 03:45:12;;;;;;;13.05;7.28;;;11.10;99.90;;;;;;5091949;28;20075;-83
2022/01/02 03:47:37;;;;;;;12.60;7.38;;;11.10;99.90;;;;;;5091529;28;20040;-83
2022/01/02 03:50:04;;;;;;;18.70;7.13;;;11.20;99.90;;;;;;5091556;28;20078;-82
2022/01/02 03:52:30;;;;;;;15.02;7.07;;;11.10;99.90;;;;;;5074724;28;20044;-82
2022/01/02 03:54:56;;;;;;;13.02;6.90;;;11.10;99.90;;;;;;5074677;28;20074;-83
2022/01/02 03:57:22;;;;;;;10.48;6.43;;;11.20;99.90;;;;;;5091204;28;20421;-83
2022/01/02 03:59:48;;;;;;;11.27;5.88;;;11.30;99.90;;;;;;5091190;28;20051;-84
2022/01/02 04:02:13;;;;;;;15.60;7.68;;;11.30;99.90;;;;;;5074317;28;20047;-83
2022/01/02 04:04:39;;;;;;;10.85;5.70;;;11.30;99.90;;;;;;5074152;28;20409;-82
2022/01/02 04:07:05;;;;;;;19.17;6.65;;;11.30;99.90;;;;;;5074355;28;20131;-83
2022/01/02 04:09:30;;;;;;;11.38;5.95;;;11.30;99.90;;;;;;5091231;28;20036;-84
2022/01/02 04:11:56;;;;;;;8.85;5.57;;;11.30;99.90;;;;;;5091026;28;20166;-83
2022/01/02 04:14:22;;;;;;;11.40;6.65;;;11.30;99.90;;;;;;5073983;28;20072;-84
2022/01/02 04:16:47;;;;;;;11.52;5.65;;;11.30;99.90;;;;;;5074716;28;20036;-83
2022/01/02 04:19:13;;;;;;;15.20;6.55;;;11.30;99.90;;;;;;5091150;28;20039;-83
2022/01/02 04:21:39;;;;;;;9.95;5.53;;;11.30;99.90;;;;;;5090475;28;20128;-83
2022/01/02 04:24:05;;;;;;;13.23;6.10;;;11.20;99.90;;;;;;5091348;28;20035;-82
2022/01/02 04:26:30;;;;;;;16.98;5.75;;;11.20;99.90;;;;;;5090924;28;20450;-83
2022/01/02 04:28:56;;;;;;;14.43;6.63;;;11.20;99.90;;;;;;5091006;28;20127;-83
2022/01/02 04:31:22;;;;;;;13.00;6.45;;;11.20;99.90;;;;;;5091076;28;20123;-83
2022/01/02 04:33:47;;;;;;;14.43;6.50;;;11.20;99.90;;;;;;5090701;28;20414;-83
2022/01/02 04:36:13;;;;;;;9.15;6.35;;;11.20;99.90;;;;;;5090754;28;20469;-83
2022/01/02 04:38:40;;;;;;;11.02;5.47;;;11.20;99.90;;;;;;5090814;28;20047;-83
2022/01/02 04:41:05;;;;;;;11.77;5.50;;;11.30;99.90;;;;;;5090752;28;20494;-83
2022/01/02 04:43:31;;;;;;;14.18;5.65;;;11.20;99.90;;;;;;5090892;28;20039;-83
2022/01/02 04:45:56;;;;;;;15.93;5.70;;;11.30;99.90;;;;;;5090832;28;20044;-83
2022/01/02 04:48:22;;;;;;;12.85;6.30;;;11.30;99.90;;;;;;5074498;28;20143;-83
2022/01/02 04:50:49;;;;;;;16.48;7.30;;;11.30;99.90;;;;;;5090927;28;20383;-83
2022/01/02 04:53:14;;;;;;;13.13;6.20;;;11.20;99.90;;;;;;5090954;28;20402;-83
2022/01/02 04:55:40;;;;;;;15.05;7.90;;;11.20;99.90;;;;;;5090369;28;20032;-83
2022/01/02 04:58:06;;;;;;;11.65;7.00;;;11.20;99.90;;;;;;5090342;28;20040;-83
2022/01/02 05:00:32;;;;;;;21.63;7.60;;;11.20;99.90;;;;;;5090789;28;20063;-83
2022/01/02 05:02:58;;;;;;;11.68;6.20;;;11.20;99.90;;;;;;5090276;28;20036;-83
2022/01/02 05:05:23;;;;;;;15.52;6.90;;;11.20;99.90;;;;;;5090970;28;20036;-85
2022/01/02 05:07:49;;;;;;;15.18;6.15;;;11.20;99.90;;;;;;5090424;28;20046;-83
2022/01/02 05:10:14;;;;;;;13.82;6.72;;;11.10;99.90;;;;;;5074010;28;20380;-83
2022/01/02 05:12:40;;;;;;;8.25;5.18;;;11.20;99.90;;;;;;5073655;28;20424;-83
2022/01/02 05:15:06;;;;;;;10.63;5.15;;;11.20;99.90;;;;;;5090650;28;20505;-83
2022/01/02 05:17:31;;;;;;;10.05;5.20;;;11.20;99.90;;;;;;5090249;28;20079;-84
2022/01/02 05:19:57;;;;;;;12.10;6.30;;;11.30;99.90;;;;;;5073768;28;20479;-82
2022/01/02 05:22:23;;;;;;;11.50;5.35;;;11.30;99.90;;;;;;5090081;28;21210;-83
2022/01/02 05:24:48;;;;;;;14.98;6.15;;;11.30;99.90;;;;;;5090055;28;20040;-83
2022/01/02 05:27:14;;;;;;;15.43;5.47;;;11.30;99.90;;;;;;5089664;28;20040;-83
2022/01/02 05:29:39;;;;;;;12.57;5.82;;;11.40;99.90;;;;;;5090194;28;20497;-83
2022/01/02 05:32:05;;;;;;;16.50;6.18;;;11.40;99.90;;;;;;5074942;28;20098;-84
2022/01/02 05:34:31;;;;;;;10.38;4.72;;;11.40;99.90;;;;;;5077783;28;20028;-84
2022/01/02 05:36:56;;;;;;;10.02;4.70;;;11.40;99.90;;;;;;5077597;28;20154;-83
2022/01/02 05:39:22;;;;;;;10.23;5.13;;;11.40;99.90;;;;;;5077749;28;20036;-85
2022/01/02 05:41:50;;;;;;;10.90;5.45;;;11.40;99.90;;;;;;5077065;28;20325;-84
2022/01/02 05:44:16;;;;;;;14.95;5.43;;;11.50;99.90;;;;;;5094279;28;20044;-83
2022/01/02 05:46:43;;;;;;;12.60;5.30;;;11.50;99.90;;;;;;5094171;28;20047;-85
2022/01/02 05:49:10;;;;;;;13.82;6.22;;;11.50;99.90;;;;;;5077596;28;20425;-83
2022/01/02 05:51:35;;;;;;;12.25;4.60;;;11.50;99.90;;;;;;5094085;28;20071;-83
2022/01/02 05:54:01;;;;;;;10.65;5.40;;;11.50;99.90;;;;;;5077332;28;20383;-83
2022/01/02 05:56:27;;;;;;;12.10;4.90;;;11.50;99.90;;;;;;5094052;28;20043;-83
2022/01/02 05:58:52;;;;;;;9.13;4.63;;;11.50;99.90;;;;;;5094399;28;20040;-82
2022/01/02 06:01:18;;;;;;;11.90;4.82;;;11.50;99.90;;;;;;5094218;28;20040;-83
2022/01/02 06:03:44;;;;;;;11.18;4.90;;;11.50;99.90;;;;;;5093488;28;20399;-83
2022/01/02 06:06:09;;;;;;;12.82;4.82;;;11.60;99.90;;;;;;5093831;28;20054;-83
2022/01/02 06:08:35;;;;;;;14.88;5.75;;;11.60;99.90;;;;;;5076925;28;20495;-83
2022/01/02 06:11:00;;;;;;;11.45;5.22;;;11.60;99.90;;;;;;5093619;28;20123;-82
2022/01/02 06:13:26;;;;;;;12.60;4.88;;;11.60;99.90;;;;;;5093379;28;20118;-84
2022/01/02 06:15:53;;;;;;;7.97;4.97;;;11.70;99.90;;;;;;5093242;28;20058;-83
2022/01/02 06:18:19;;;;;;;9.55;5.00;;;11.70;99.90;;;;;;5076658;28;20487;-83
2022/01/02 06:20:44;;;;;;;12.93;5.03;;;11.70;99.90;;;;;;5093607;28;20055;-83
2022/01/02 06:23:10;;;;;;;9.50;4.32;;;11.70;99.90;;;;;;5093434;28;20516;-84
2022/01/02 06:25:35;;;;;;;11.45;3.95;;;11.70;99.90;;;;;;5076336;28;20043;-84
2022/01/02 06:28:01;;;;;;;11.02;4.90;;;11.80;99.90;;;;;;5076469;28;20036;-84
2022/01/02 06:30:27;;;;;;;8.85;3.20;;;11.80;99.90;;;;;;5092775;28;20062;-81
2022/01/02 06:32:55;;;;;;;10.15;3.90;;;11.80;99.90;;;;;;5093285;28;20036;-82
2022/01/02 06:35:32;;;;;;;9.85;3.20;;;11.90;99.90;;;;;;5093352;28;20036;-83
2022/01/02 06:37:58;;;;;;;8.38;3.00;;;12.00;99.90;;;;;;5093423;28;20039;-84
2022/01/02 06:40:26;;;;;;;10.57;3.72;;;12.00;99.90;;;;;;5093190;28;20380;-83
2022/01/02 06:42:52;;;;;;;10.32;4.57;;;12.10;99.90;;;;;;5076101;28;20123;-83
2022/01/02 06:45:18;;;;;;;9.20;3.92;;;12.10;99.90;;;;;;5091920;28;20093;-84
2022/01/02 06:47:43;;;;;;;7.80;2.97;;;12.10;99.90;;;;;;5076405;28;20397;-84
2022/01/02 06:50:11;;;;;;;12.20;3.80;;;12.10;99.90;;;;;;5075731;28;20127;-84
2022/01/02 06:52:37;;;;;;;8.88;2.75;;;12.00;99.90;;;;;;5092815;28;20483;-84
2022/01/02 06:55:03;;;;;;;10.68;3.53;;;12.00;99.90;;;;;;5092582;28;20032;-85
2022/01/02 06:57:29;;;;;;;11.48;2.75;;;12.10;99.90;;;;;;5076055;28;20111;-85
2022/01/02 06:59:55;;;;;;;8.93;2.90;;;12.10;99.90;;;;;;5092438;28;20181;-83
2022/01/02 07:02:20;;;;;;;4.13;1.75;;;12.10;99.90;;;;;;5095377;28;20044;-84
2022/01/02 07:04:46;;;;;;;12.68;3.00;;;12.10;99.90;;;;;;5094278;28;20051;-83
2022/01/02 07:07:11;;;;;;;12.40;3.05;;;12.20;99.90;;;;;;5098652;28;20043;-82
2022/01/02 07:09:37;;;;;;;9.18;2.58;;;12.20;99.90;;;;;;5114295;28;20072;-85
2022/01/02 07:12:03;;;;;;;13.43;2.22;;;12.20;99.90;;;;;;5098308;28;20032;-86
2022/01/02 07:14:30;;;;;;;8.00;2.60;;;12.20;99.90;;;;;;5114823;28;20040;-84
2022/01/02 07:16:57;;;;;;;6.57;2.25;;;12.20;99.90;;;;;;5097850;28;20110;-83
2022/01/02 07:19:23;;;;;;;7.20;1.98;;;12.10;99.90;;;;;;5098124;28;20035;-87
2022/01/02 07:21:49;;;;;;;9.98;3.22;;;12.10;99.90;;;;;;5113261;28;20276;-84
2022/01/02 07:24:15;;;;;;;5.43;2.10;;;12.10;99.90;;;;;;5079984;28;20040;-84
2022/01/02 07:26:41;;;;;;;6.70;3.30;;;12.00;99.90;;;;;;5096729;28;20036;-84
2022/01/02 07:29:06;;;;;;;6.90;2.05;;;12.00;99.90;;;;;;5097184;28;20071;-83
2022/01/02 07:31:32;;;;;;;8.95;2.42;;;12.00;99.90;;;;;;5078474;28;20040;-84
2022/01/02 07:33:57;;;;;;;5.72;1.92;;;11.90;99.90;;;;;;5078966;28;20043;-84
2022/01/02 07:36:23;;;;;;;5.47;3.05;;;11.90;99.90;;;;;;5094593;28;20444;-84
2022/01/02 07:38:49;;;;;;;5.13;2.45;;;11.90;99.90;;;;;;5093631;28;20040;-83
2022/01/02 07:41:15;;;;;;;9.32;3.30;;;11.80;99.90;;;;;;5093193;28;20501;-84
2022/01/02 07:43:40;;;;;;;5.07;2.15;;;11.80;99.90;;;;;;5077168;28;20123;-83
2022/01/02 07:46:06;;;;;;;5.18;2.60;;;11.80;99.90;;;;;;5093766;28;20546;-84
2022/01/02 07:48:32;;;;;;;9.50;2.70;;;11.80;99.90;;;;;;5077681;28;20032;-83
2022/01/02 07:50:58;;;;;;;6.85;2.70;;;11.80;99.90;;;;;;5077617;28;20036;-85
2022/01/02 07:53:23;;;;;;;5.93;2.80;;;11.80;99.90;;;;;;5093572;28;20084;-81
2022/01/02 07:55:49;;;;;;;6.18;2.58;;;11.80;99.90;;;;;;5076639;28;20040;-82
2022/01/02 07:58:15;;;;;;;13.00;2.90;;;11.80;99.90;;;;;;5094721;28;20402;-82
2022/01/02 08:00:41;;;;;;;9.02;3.17;;;11.80;99.90;;;;;;5078125;28;20487;-83
2022/01/02 08:03:06;;;;;;;6.80;2.80;;;11.80;99.90;;;;;;5094013;28;20036;-83
2022/01/02 08:05:32;;;;;;;6.20;2.95;;;11.80;99.90;;;;;;5076690;28;20047;-83
2022/01/02 08:07:58;;;;;;;9.93;3.55;;;11.80;99.90;;;;;;5077113;28;20036;-81
2022/01/02 08:10:25;;;;;;;9.98;3.75;;;11.80;99.90;;;;;;5094871;28;20116;-84
2022/01/02 08:12:51;;;;;;;8.15;3.10;;;11.70;99.90;;;;;;5077525;28;20051;-85
2022/01/02 08:15:17;;;;;;;8.98;2.78;;;11.70;99.90;;;;;;5075872;28;20145;-85
2022/01/02 08:17:43;;;;;;;7.70;3.75;;;11.80;99.90;;;;;;5076451;28;20115;-82
2022/01/02 08:20:09;;;;;;;6.43;4.15;;;11.80;99.90;;;;;;5093171;28;20066;-83
2022/01/02 08:22:34;;;;;;;6.60;4.00;;;11.80;99.90;;;;;;5092892;28;20044;-84
2022/01/02 08:25:00;;;;;;;11.18;4.65;;;11.70;99.90;;;;;;5091885;28;20088;-83
2022/01/02 08:27:26;;;;;;;6.30;2.85;;;11.70;99.90;;;;;;5076400;28;20047;-85
2022/01/02 08:29:51;;;;;;;8.82;3.88;;;11.70;99.90;;;;;;5075046;28;20051;-83
2022/01/02 08:32:17;;;;;;;7.15;3.17;;;11.70;99.90;;;;;;5075391;28;20032;-84
2022/01/02 08:34:42;;;;;;;9.05;4.05;;;11.70;99.90;;;;;;5075038;28;20119;-83
2022/01/02 08:37:08;;;;;;;6.88;3.85;;;11.60;99.90;;;;;;5092574;28;20118;-83
2022/01/02 08:39:34;;;;;;;6.70;2.88;;;11.60;99.90;;;;;;5091669;28;20067;-84
2022/01/02 08:41:59;;;;;;;5.63;2.60;;;11.60;99.90;;;;;;5092225;28;20048;-82
2022/01/02 08:44:25;;;;;;;5.07;2.58;;;11.70;99.90;;;;;;5092724;28;20036;-82
2022/01/02 08:46:50;;;;;;;6.75;2.10;;;11.70;99.90;;;;;;5092192;28;20036;-82
2022/01/02 08:49:17;;;;;;;4.82;2.80;;;11.70;99.90;;;;;;5074976;28;20032;-85
2022/01/02 08:51:42;;;;;;;4.70;2.13;;;11.80;99.90;;;;;;5092579;28;20032;-83
2022/01/02 08:54:08;;;;;;;10.20;2.85;;;11.80;99.90;;;;;;5075053;28;20054;-82
2022/01/02 08:56:33;;;;;;;8.50;3.22;;;11.80;99.90;;;;;;5073583;28;20035;-84
2022/01/02 08:58:59;;;;;;;10.50;2.67;;;11.80;99.90;;;;;;5090061;28;20108;-84
2022/01/02 09:01:24;;;;;;;6.60;2.72;;;11.80;99.90;;;;;;5093942;28;20044;-85
2022/01/02 09:03:50;;;;;;;7.82;3.05;;;11.80;99.90;;;;;;5076429;28;20059;-81
2022/01/02 09:06:16;;;;;;;12.23;5.53;;;11.70;99.90;;;;;;5092855;28;20491;-84
2022/01/02 09:08:41;;;;;;;82.22;45.28;;;11.70;99.90;;;;;;5075460;28;20040;-84
2022/01/02 09:11:07;;;;;;;10.52;3.80;;;11.60;99.90;;;;;;5087298;28;20032;-84
2022/01/02 09:13:33;;;;;;;186.55;133.48;;;11.60;99.90;;;;;;5073884;28;20028;-84
2022/01/02 09:15:59;;;;;;;8.52;4.97;;;11.60;99.90;;;;;;5074031;28;20033;-84
2022/01/02 09:18:25;;;;;;;10.35;3.13;;;11.60;99.90;;;;;;5092159;28;20046;-84
2022/01/02 09:20:50;;;;;;;6.55;3.33;;;11.60;99.90;;;;;;5091630;28;20194;-82
2022/01/02 09:23:16;;;;;;;5.50;2.65;;;11.70;99.90;;;;;;5092203;28;20040;-82
2022/01/02 09:25:42;;;;;;;6.90;2.60;;;11.70;99.90;;;;;;5091669;28;20530;-84
2022/01/02 09:28:07;;;;;;;7.43;4.45;;;11.70;99.90;;;;;;5074823;28;20498;-82
2022/01/02 09:30:33;;;;;;;4.60;2.53;;;11.70;99.90;;;;;;5074017;28;20036;-82
2022/01/02 09:32:59;;;;;;;6.90;2.78;;;11.80;99.90;;;;;;5091782;28;20040;-83
2022/01/02 09:35:25;;;;;;;5.65;2.85;;;11.80;99.90;;;;;;5091016;28;20040;-82
2022/01/02 09:37:51;;;;;;;6.32;2.70;;;11.80;99.90;;;;;;5091240;28;20076;-83
2022/01/02 09:40:17;;;;;;;7.47;2.97;;;11.90;99.90;;;;;;5074895;28;20092;-82
2022/01/02 09:42:42;;;;;;;5.65;2.53;;;11.90;99.90;;;;;;5091282;28;20040;-85
2022/01/02 09:45:08;;;;;;;9.95;2.80;;;11.90;99.90;;;;;;5091184;28;20047;-82
2022/01/02 09:47:35;;;;;;;6.22;3.05;;;12.00;99.90;;;;;;5074154;28;20061;-82
2022/01/02 09:50:05;;;;;;;5.82;2.30;;;12.00;99.90;;;;;;5074137;28;20093;-82
2022/01/02 09:52:31;;;;;;;6.45;2.33;;;12.00;99.90;;;;;;5089986;28;20462;-82
2022/01/02 09:54:57;;;;;;;5.82;1.77;;;12.00;99.90;;;;;;5073692;28;20113;-82
2022/01/02 09:57:23;;;;;;;5.78;1.95;;;12.10;99.90;;;;;;5089644;28;20093;-81
2022/01/02 09:59:48;;;;;;;4.53;1.85;;;12.10;99.90;;;;;;5091647;28;20040;-81
2022/01/02 10:02:14;;;;;;;11.20;4.80;;;12.20;99.90;;;;;;5090488;28;20044;-81
2022/01/02 10:04:43;;;;;;;6.28;3.47;;;12.20;99.90;;;;;;5091922;28;20044;-83
2022/01/02 10:07:30;;;;;;;65.07;42.63;;;12.20;99.90;;;;;;5091216;28;20467;-82
2022/01/02 10:09:55;;;;;;;13.90;6.80;;;12.30;99.90;;;;;;5074262;28;20327;-80
2022/01/02 10:12:25;;;;;;;5.35;2.13;;;12.30;99.90;;;;;;5091034;28;20479;-81
2022/01/02 10:15:11;;;;;;;5.20;2.30;;;12.30;99.90;;;;;;5089189;28;20036;-81
2022/01/02 10:18:01;;;;;;;9.48;3.05;;;12.30;99.90;;;;;;5085365;28;20043;-82
2022/01/02 10:20:34;;;;;;;8.93;3.17;;;12.30;99.90;;;;;;5094458;28;20147;-83
2022/01/02 10:23:01;;;;;;;6.38;2.28;;;12.30;99.90;;;;;;5094399;28;20056;-83
2022/01/02 10:25:40;;;;;;;4.85;2.65;;;12.20;99.90;;;;;;5075467;28;20071;-82
2022/01/02 10:28:33;;;;;;;4.10;2.40;;;12.20;99.90;;;;;;5076859;28;20131;-83
2022/01/02 10:31:01;;;;;;;4.88;2.78;;;12.10;99.90;;;;;;5093341;28;20046;-82
2022/01/02 10:33:29;;;;;;;5.50;2.92;;;12.20;99.90;;;;;;5077173;28;20406;-82
2022/01/02 10:36:01;;;;;;;4.90;2.47;;;12.20;99.90;;;;;;5094326;28;20044;-83
2022/01/02 10:38:29;;;;;;;6.97;3.88;;;12.20;99.90;;;;;;5093895;28;20036;-82
2022/01/02 10:40:54;;;;;;;5.20;3.38;;;12.20;99.90;;;;;;5093829;28;20051;-83
2022/01/02 10:43:29;;;;;;;5.82;3.28;;;12.20;99.90;;;;;;5077286;28;20036;-83
2022/01/02 10:45:57;;;;;;;8.20;3.00;;;12.20;99.90;;;;;;5093944;28;20066;-82
2022/01/02 10:48:31;;;;;;;6.20;3.17;;;12.20;99.90;;;;;;5093928;28;20044;-83
2022/01/02 10:51:03;;;;;;;6.13;3.60;;;12.20;99.90;;;;;;5077126;28;20142;-83
2022/01/02 10:53:29;;;;;;;3.80;2.58;;;12.20;99.90;;;;;;5093696;28;20371;-82
2022/01/02 10:55:55;;;;;;;7.35;3.22;;;12.30;99.90;;;;;;5094094;28;20079;-82
2022/01/02 10:58:21;;;;;;;7.13;4.10;;;12.20;99.90;;;;;;5093731;28;20436;-82
2022/01/02 11:00:47;;;;;;;8.52;3.65;;;12.30;99.90;;;;;;5094971;28;20450;-82
2022/01/02 11:03:13;;;;;;;7.53;3.58;;;12.30;99.90;;;;;;5076790;28;20127;-82
2022/01/02 11:05:40;;;;;;;10.43;5.07;;;12.40;99.90;;;;;;5094526;28;20090;-82
2022/01/02 11:08:06;;;;;;;6.03;3.35;;;12.60;99.90;;;;;;5094012;28;20040;-82
2022/01/02 11:10:35;;;;;;;7.50;3.22;;;12.60;99.90;;;;;;5076988;28;20077;-82
2022/01/02 11:13:03;;;;;;;7.35;3.72;;;12.60;99.90;;;;;;5093778;28;20036;-82
2022/01/02 11:15:29;;;;;;;7.90;3.72;;;12.60;99.90;;;;;;5094088;28;20513;-81
2022/01/02 11:17:55;;;;;;;6.03;2.92;;;12.70;99.90;;;;;;5093721;28;20495;-82
2022/01/02 11:20:29;;;;;;;6.68;3.45;;;12.60;99.90;;;;;;5093820;28;20043;-82
2022/01/02 11:23:18;;;;;;;5.13;3.08;;;12.70;99.90;;;;;;5094621;28;20044;-82
2022/01/02 11:26:24;;;;;;;7.97;3.08;;;12.70;99.90;;;;;;5076220;28;20048;-82
2022/01/02 11:28:50;;;;;;;7.05;3.13;;;12.60;99.90;;;;;;5015395;28;20060;-82
2022/01/02 11:31:43;;;;;;;8.20;3.42;;;12.60;99.90;;;;;;5063138;28;20060;-81
2022/01/02 11:34:24;;;;;;;6.30;3.92;;;12.60;99.90;;;;;;5073737;28;20036;-83
2022/01/02 11:36:51;;;;;;;8.43;3.55;;;12.60;99.90;;;;;;5072835;28;20113;-82
2022/01/02 11:39:17;;;;;;;6.85;3.35;;;12.60;99.90;;;;;;5073627;28;20066;-82
2022/01/02 11:41:50;;;;;;;6.57;3.10;;;12.50;99.90;;;;;;5074714;28;20450;-83
2022/01/02 11:44:16;;;;;;;7.93;4.25;;;12.50;99.90;;;;;;5083978;28;20055;-82
2022/01/02 11:46:56;;;;;;;6.50;4.22;;;12.50;99.90;;;;;;5077299;28;20044;-82
2022/01/02 11:49:25;;;;;;;4.55;3.00;;;12.50;99.90;;;;;;5092979;28;20044;-81
2022/01/02 11:51:58;;;;;;;5.53;3.50;;;12.50;99.90;;;;;;5077530;28;20119;-82
2022/01/02 11:54:31;;;;;;;6.63;3.60;;;12.50;99.90;;;;;;5093445;28;20387;-82
2022/01/02 11:57:03;;;;;;;5.53;3.40;;;12.40;99.90;;;;;;5076121;28;20043;-81
2022/01/02 11:59:42;;;;;;;8.95;4.80;;;12.40;99.90;;;;;;5076480;28;20044;-82
2022/01/02 12:02:14;;;;;;;9.20;4.57;;;12.40;99.90;;;;;;5093193;28;20043;-82
2022/01/02 12:05:02;;;;;;;7.65;4.13;;;12.40;99.90;;;;;;5093609;28;20122;-83
2022/01/02 12:07:37;;;;;;;10.05;4.28;;;12.40;99.90;;;;;;5091776;28;20048;-82
2022/01/02 12:12:56;;;;;;;8.02;4.03;;;12.40;99.90;;;;;;5093817;28;20044;-83
2022/01/02 12:15:42;;;;;;;7.85;3.63;;;12.40;99.90;;;;;;5093860;28;20039;-82
2022/01/02 12:18:24;;;;;;;6.32;4.35;;;12.40;99.90;;;;;;5078893;28;20040;-81
2022/01/02 12:20:53;;;;;;;9.43;3.38;;;12.50;99.90;;;;;;5092718;28;20090;-82
2022/01/02 12:23:33;;;;;;;4.03;2.58;;;12.50;99.90;;;;;;5093137;28;20043;-82
2022/01/02 12:25:59;;;;;;;7.65;2.35;;;12.50;99.90;;;;;;5092776;28;20372;-81
2022/01/02 12:28:25;;;;;;;4.45;2.10;;;12.50;99.90;;;;;;5093371;28;20043;-83
2022/01/02 12:30:54;;;;;;;7.57;2.30;;;12.60;99.90;;;;;;5092807;28;20090;-81
2022/01/02 12:33:28;;;;;;;5.80;1.98;;;12.60;99.90;;;;;;5093640;28;20050;-81
2022/01/02 12:35:54;;;;;;;8.63;2.95;;;12.60;99.90;;;;;;5092608;28;20072;-82
2022/01/02 12:38:19;;;;;;;9.77;2.35;;;12.50;99.90;;;;;;5076175;28;20093;-82
2022/01/02 12:40:47;;;;;;;4.10;2.17;;;12.50;99.90;;;;;;5075620;28;20514;-82
2022/01/02 12:43:13;;;;;;;6.78;1.60;;;12.50;99.90;;;;;;5092869;28;20044;-82
2022/01/02 12:45:39;;;;;;;17.58;1.90;;;12.50;99.90;;;;;;5091163;28;20490;-82
2022/01/02 12:48:05;;;;;;;5.60;1.55;;;12.60;99.90;;;;;;5092021;28;20036;-80
2022/01/02 12:50:33;;;;;;;6.70;1.15;;;12.60;99.90;;;;;;5092610;28;20403;-81
2022/01/02 12:52:59;;;;;;;7.15;2.28;;;12.60;99.90;;;;;;5075721;28;20032;-83
2022/01/02 12:55:26;;;;;;;3.55;1.05;;;12.70;99.90;;;;;;5092921;28;20086;-82
2022/01/02 12:58:03;;;;;;;7.40;1.48;;;12.70;99.90;;;;;;5075314;28;20118;-81